Extreme weather reports worldwide

Atmospheric pressure

Low pressure

Station
 
Location
 
Name
 
Wind
Knots
Gust
Knots
Vis
SM
Temp/Dew
C
Baro
inHg
METAR
 
NZCM 8 6.21 -19/-29 28.97 NZCM 272055Z AUTO 09008KT 030V120 9999 CLR M19/M30 A2897 RMK AO2 SLP815 T11921299 50012 $
RVN EFRO Rovaniemi, FI Rovaniemi Airport 6 6.21 5/4 29.23 EFRO 272120Z AUTO 33006KT 9999 SCT013 BKN024 05/04 Q0990
OUL EFOU Oulu / Oulunsalo, FI Oulu Airport 5 4.35 8/7 29.23 EFOU 272120Z AUTO 01005KT 7000 -SHRA BKN007 08/07 Q0990
KAO EFKS Kuusamo, FI Kuusamo Airport 3 6.21 4/4 29.23 EFKS 272120Z AUTO 13003KT 9999 OVC019 04/04 Q0990
KAJ EFKI Kajaani, FI Kajaani Airport 4 6.21 7/7 29.23 EFKI 272120Z AUTO 23004KT 9999 -SHRA OVC009 07/07 Q0990

Station
 
Location
 
Name
 
Wind
Knots
Gust
Knots
Vis
SM
Temp/Dew
C
Baro
inHg
METAR
 
KUO EFKU Kuopio / Siilinjärvi, FI Kuopio Airport 7 6.21 11/7 29.26 EFKU 272120Z AUTO 25007KT CAVOK 11/07 Q0991
KTT EFKT Kittilä, FI Kittilä Airport 10 6.21 4/2 29.26 EFKT 272120Z AUTO 02010KT 9999 -RA BKN012 OVC041 04/02 Q0991
KEM EFKE Kemi / Tornio, FI Kemi-Tornio Airport 5 6.21 6/5 29.26 EFKE 272120Z AUTO 33005KT 9999 SCT029 06/05 Q0991
SVL EFSA Savonlinna, FI Savonlinna Airport 4 6.21 7/6 29.29 EFSA 272120Z AUTO 21004KT CAVOK 07/06 Q0992
MIK EFMI Mikkeli, FI Mikkeli Airport 3 6.21 9/8 29.29 EFMI 272120Z AUTO 17003KT CAVOK 09/08 Q0992
KOK EFKK Kokkola / Kruunupyy, FI Kokkola-Pietarsaari Airport 4 6.21 7/7 29.29 EFKK 272120Z AUTO 30004KT 260V330 9999 -RA OVC004 07/07 Q0992
JYV EFJY Jyväskylän Maalaiskunta, FI Jyvaskyla Airport 3 6.21 10/7 29.29 EFJY 272120Z AUTO 28003KT 240V310 9999 -RA NSC 10/07 Q0992
JOE EFJO Joensuu / Liperi, FI Joensuu Airport 5 6.21 11/8 29.29 EFJO 272120Z AUTO 16005KT CAVOK 11/08 Q0992
IVL EFIV Ivalo, FI Ivalo Airport 10 6.21 4/3 29.29 EFIV 272120Z AUTO 05010KT 9999 RA OVC005 04/03 Q0992
HRB ZYHB Harbin, CN Taiping Airport 6 6.21 15/12 29.29 ZYHB 272100Z 16003MPS 110V210 CAVOK 15/12 Q0992 NOSIG
BQS UHBB Blagoveschensk, RU Ignatyevo Airport 8 4.35 12/12 29.29 UHBB 272100Z 12004MPS 7000 -SHRA BKN026CB 12/12 Q0992 R18/290250 NOSIG RMK QFE729/0972
TNM SCRM Isla Rey Jorge, AQ Teniente Rodolfo Marsh Martin Base 2 6.21 -5/-10 29.29 SCRM 272100Z 25002KT 9999 BKN033 M05/M10 Q0992 NOSIG
VAA EFVA Vaasa, FI Vaasa Airport 3 6.21 10/7 29.32 EFVA 272120Z AUTO 03003KT 9999 OVC034 10/07 Q0993
UTI EFUT Utti / Valkeala, FI Utti Air Base 5 6.21 9/9 29.32 EFUT 272120Z AUTO 21005KT 9999 -RA OVC041 09/09 Q0993
TMP EFTP Tampere / Pirkkala, FI Tampere-Pirkkala Airport 2 6.21 9/8 29.32 EFTP 272120Z AUTO 25002KT 9999 OVC046 09/08 Q0993
SJY EFSI Seinäjoki / Ilmajoki, FI Seinäjoki Airport 1 6.21 9/8 29.32 EFSI 272120Z AUTO VRB01KT CAVOK 09/08 Q0993
LPP EFLP Lappeenranta, FI Lappeenranta Airport 3 6.21 9/7 29.32 EFLP 272120Z AUTO 17003KT 140V200 CAVOK 09/07 Q0993
HEL EFHK Helsinki, FI Helsinki Vantaa Airport 3 6.21 9/9 29.32 EFHK 272120Z 23003KT 9999 -RA SCT005 BKN012 09/09 Q0993 TEMPO BKN005
KEV EFHA Halli / Kuorevesi, FI Halli Airport 4 6.21 9/8 29.32 EFHA 272120Z AUTO 29004KT CAVOK 09/08 Q0993
ENF EFET Enontekio, FI Enontekio Airport 18 6.21 4/2 29.32 EFET 272120Z AUTO 01018KT 9999 -RA OVC011 04/02 Q0993
CGQ ZYCC Changchun, CN Longjia Airport 12 6.21 16/11 29.32 ZYCC 272100Z 19006MPS CAVOK 16/11 Q0993 NOSIG
MUX OPMT Multan, PK Multan International Airport 4 2.49 33/20 29.32 OPMT 272100Z 23004KT 4000 HZ NSC 33/20 Q0993 NOSIG
PJA ESUP SE Pajala Airport 10 4.35 6/5 29.32 ESUP 272050Z AUTO 32010KT 7000 -DZ BKN018/// OVC025/// 06/05 Q0993
LLA ESPA Luleå, SE Luleå Airport 9 6.21 7/6 29.32 ESPA 272050Z 35009KT 9999 FEW035 SCT120 07/06 Q0993
TKU EFTU Turku, FI Turku Airport 4 6.21 9/7 29.35 EFTU 272120Z AUTO 30004KT CAVOK 09/07 Q0994
POR EFPO Pori, FI Pori Airport 6 6.21 8/7 29.35 EFPO 272120Z AUTO 28006KT 9999 OVC003 08/07 Q0994
TLL EETN Tallinn, EE Lennart Meri Tallinn Airport 11 6.21 9/7 29.35 EETN 272120Z 25011KT 9999 OVC012 09/07 Q0994 NOSIG
LED ULLI St. Petersburg, RU Pulkovo Airport 0 4.35 11/10 29.35 ULLI 272100Z 00000MPS 7000 -SHRA BKN006 BKN018CB OVC036 11/10 Q0994 R28L/190055 NOSIG RMK OBST OBSC
UME ESNU Umeå, SE Umeå Airport 6 6.21 9/8 29.35 ESNU 272050Z 33006KT 9999 DZ FEW019 OVC032 09/08 Q0994
SFT ESNS Skellefteå, SE Skellefteå Airport 7 6.21 8/8 29.35 ESNS 272050Z AUTO 33007KT 9999 -RA BKN006/// BKN010/// OVC013/// 08/08 Q0994
OER ESNO Örnsköldsvik, SE Örnsköldsvik Airport 3 6.21 / 29.35 ESNO 272050Z AUTO VRB03KT 9999 R12/P2000N R30///// FEW017/// OVC026/// ///// Q0994
EEEI Keila, EE Ämari Air Base 6 6.21 9/7 29.38 EEEI 272123Z AUTO 25006KT 9999 OVC009/// 09/07 Q0995
MHQ EFMA FI Mariehamn Airport 3 6.21 9/8 29.38 EFMA 272120Z AUTO 31003KT 9999 BKN042 09/08 Q0995
SHE ZYTX Shenyang, CN Taoxian Airport 8 6.21 20/9 29.38 ZYTX 272100Z 16004MPS CAVOK 20/09 Q0995 NOSIG
TSN ZBTJ Tianjin, CN Tianjin Binhai International Airport 8 6.21 24/13 29.38 ZBTJ 272100Z 22004MPS 190V270 CAVOK 24/13 Q0995 NOSIG
PKX ZBAD Beijing, CN Beijing Daxing International Airport 8 6.21 21/13 29.38 ZBAD 272100Z 20004MPS CAVOK 21/13 Q0995 NOSIG
PEK ZBAA Beijing, CN Beijing Capital International Airport 2 6.21 18/11 29.38 ZBAA 272100Z VRB01MPS CAVOK 18/11 Q0995 NOSIG
PES ULPB Petrozavodsk, RU Petrozavodsk Airport 4 6.21 9/6 29.38 ULPB 272100Z AUTO 20002MPS 160V230 9999 // 09/06 Q0995 RMK QFE742/0990
MMK ULMM Murmansk, RU Murmansk Airport 8 6.21 4/4 29.38 ULMM 272100Z 09004MPS 9999 BKN013 04/04 Q0995 R13/290160 NOSIG RMK QFE739
KHV UHHH Khabarovsk, RU Khabarovsk-Novy Airport 8 6.21 14/13 29.38 UHHH 272100Z 04004MPS 9999 BKN005 14/13 Q0995 R05L/090060 NOSIG RMK QBB150 OBST OBSC QFE740/0987
SKZ OPSK Mirpur Khas, PK Sukkur Airport 0 2.49 32/23 29.38 OPSK 272100Z 00000KT 4000 HZ NSC 32/23 Q0995 NOSIG
ARN ESSA Stockholm, SE Stockholm-Arlanda Airport 7 6.21 9/8 29.38 ESSA 272050Z 27007KT 9999 SCT015 SCT051 09/08 Q0995 NOSIG
ESPE Vidsel, SE Vidsel Air Base 7 6.21 6/5 29.38 ESPE 272050Z AUTO 34007KT 9999 BKN016/// OVC026/// 06/05 Q0995
AJR ESNX Arvidsjaur, SE Arvidsjaur Airport 8 6.21 5/4 29.38 ESNX 272050Z AUTO 34008KT 300V360 9999 -RA BKN011/// OVC017/// 05/04 Q0995
LYC ESNL SE Lycksele Airport 6 6.21 8/7 29.38 ESNL 272050Z AUTO 31006KT 9999 -RA FEW016/// BKN021/// OVC030/// 08/07 Q0995

High pressure

Station
 
Location
 
Name
 
Wind
Knots
Gust
Knots
Vis
SM
Temp/Dew
C
Baro
inHg
METAR
 
LPB SLLP La Paz / El Alto, BO El Alto International Airport 11 6.21 14/-12 30.56 SLLP 272100Z 30011KT 270V330 9999 FEW020 14/M12 Q1035
ORU SLOR Oruro, BO Juan Mendoza Airport 3 6.21 15/-7 30.53 SLOR 272100Z 18003KT 9999 FEW015 15/M07 Q1034
K0CO 16 29 8/-8 30.47 K0CO 272115Z AUTO 29016G29KT SCT110 08/M08 A3047 RMK AO2 PWINO
KCCU 12 27 10 12/-9 30.46 KCCU 272115Z AUTO 27012G27KT 10SM SCT095 SCT110 12/M09 A3046 RMK AO2
K4BM 4 10 12/-7 30.43 K4BM 272115Z AUTO 14004KT 10SM BKN100 BKN120 12/M07 A3043 RMK AO2

Station
 
Location
 
Name
 
Wind
Knots
Gust
Knots
Vis
SM
Temp/Dew
C
Baro
inHg
METAR
 
TUA SETU Tulcán, EC Teniente Coronel Luis a Mantilla Airport 10 6.21 14/7 30.41 SETU 272100Z 08010KT 9999 BKN020 14/07 Q1030
NQY EGHQ Newquay, GB Newquay Cornwall Airport 4 6.21 10/7 30.38 EGHQ 272050Z AUTO 01004KT 9999 NCD 10/07 Q1029
ORK EICK Cork, IE Cork Airport 3 6.21 13/8 30.38 EICK 272100Z 35003KT 9999 FEW030 13/08 Q1029 NOSIG
DUB EIDW Dublin, IE Dublin Airport 6 6.21 9/4 30.38 EIDW 272100Z 34006KT 310V010 9999 FEW025 SCT220 09/04 Q1029 NOSIG
SNN EINN Shannon, IE Shannon Airport 6 6.21 11/7 30.38 EINN 272100Z 32006KT CAVOK 11/07 Q1029 NOSIG
CUZ SPZO Cusco, PE Alejandro Velasco Astete International Airport 11 6.21 18/3 30.38 SPZO 272100Z 31011KT 270V340 9999 FEW050 SCT100 18/03 Q1029 NOSIG BIRD HAZARD RWY 10/28 PP000
K5SM 7 22 10 15/-7 30.38 K5SM 272115Z AUTO 25007G22KT 210V300 10SM BKN095 15/M07 A3038 RMK AO2
BFS EGAA Belfast, GB Belfast International Airport 6 6.21 11/5 30.35 EGAA 272050Z AUTO 32006KT 9999 OVC040 11/05 Q1028
BHD EGAC Belfast, GB George Best Belfast City Airport 6 6.21 12/5 30.35 EGAC 272050Z AUTO 32006KT 300V360 9999 SCT041/// 12/05 Q1028
EGCK Caernarfon, GB Caernarfon Airport 8 6.21 11/6 30.35 EGCK 272050Z AUTO 24008KT 9999 NCD 11/06 Q1028
EGDR Helston, GB RNAS Culdrose 6 6.21 10/7 30.35 EGDR 272050Z AUTO 36006KT 9999 NCD 10/07 Q1028
CWL EGFF Cardiff, GB Cardiff International Airport 6 6.21 12/5 30.35 EGFF 272050Z AUTO 32006KT 9999 NCD 12/05 Q1028
IOM EGNS Castletown, IM Isle of Man Airport 14 6.21 11/5 30.35 EGNS 272050Z 33014KT 9999 FEW045 11/05 Q1028
EGOP 7 6.21 11/6 30.35 EGOP 272050Z AUTO 34007KT 9999 // NCD 11/06 Q1028
VLY EGOV Angelsey, GB Anglesey Airport 5 6.21 11/8 30.35 EGOV 272050Z AUTO 26005KT 9999 NCD 11/08 Q1028
ILY EGPI Port Ellen, GB Islay Airport 9 6.21 10/8 30.35 EGPI 272050Z 31009KT 9999 BKN046 10/08 Q1028
EIME Baldonnel, IE Casement Air Base 6 6.21 12/6 30.35 EIME 272100Z 04006KT 9999 FEW045 12/06 Q1028
JNB FAOR Johannesburg, ZA OR Tambo International Airport 8 6.21 13/6 30.35 FAOR 272100Z 33008KT CAVOK 13/06 Q1028 NOSIG
WKF FAWK Pretoria, ZA Waterkloof Air Force Base 4 14/9 30.35 FAWK 272100Z AUTO 04004KT //// // ////// 14/09 Q1028
AKL NZAA Auckland, NZ Auckland International Airport 3 6.21 10/8 30.35 NZAA 272100Z AUTO 13003KT 9999 FEW035/// 10/08 Q1028 NOSIG
WLG NZWN Wellington, NZ Wellington International Airport 12 6.21 10/7 30.35 NZWN 272100Z AUTO 01012KT 9999 FEW032/// 10/07 Q1028 NOSIG
LTX SELT Latacunga, EC Cotopaxi International Airport 14 6.21 15/5 30.35 SELT 272100Z 18014KT 9999 SCT030 15/05 Q1028
IPI SKIP Ipiales, CO San Luis Airport 8 6.21 13/7 30.35 SKIP 272100Z 09008KT 9999 BKN018 13/07 Q1028 RMK A3037
TLC MMTO Toluca, MX Licenciado Adolfo Lopez Mateos International Airport 13 8 24/2 30.34 MMTO 272044Z 03013KT 8SM SCT020 24/02 A3034 RMK SLP046 57016 953 8/100 HZY
KC07 10 16 10 13/-2 30.34 KC07 272115Z AUTO 29010G16KT 260V330 10SM SCT100 SCT120 13/M02 A3034 RMK AO2
KC99 10 17 10 12/-8 30.34 KC99 272115Z AUTO 25010G17KT 220V280 10SM CLR 12/M08 A3034 RMK AO2
KVTP 13 21 10 18/-7 30.34 KVTP 272115Z AUTO 25013G21KT 220V280 10SM SCT120 18/M07 A3034 RMK AO2
BHX EGBB Birmingham, GB Birmingham International Airport 8 6.21 12/5 30.32 EGBB 272050Z 33008KT CAVOK 12/05 Q1027
MAN EGCC Manchester, GB Manchester Airport 5 6.21 11/6 30.32 EGCC 272050Z AUTO 31005KT 240V350 9999 NCD 11/06 Q1027 NOSIG
YEO EGDY Yeovil, GB RNAS Yeovilton 2 6.21 12/8 30.32 EGDY 272050Z AUTO 29002KT 9999 FEW210/// 12/08 Q1027
BRS EGGD Bristol, GB Bristol Airport 6 6.21 12/5 30.32 EGGD 272050Z AUTO 32006KT 270V350 9999 NCD 12/05 Q1027
LPL EGGP Liverpool, GB Liverpool John Lennon Airport 10 6.21 12/8 30.32 EGGP 272050Z 32010KT 290V350 9999 VCSH FEW019 SCT026 12/08 Q1027
GCI EGJB Saint Peter Port, GG Guernsey Airport 5 6.21 11/10 30.32 EGJB 272050Z 31005KT CAVOK 11/10 Q1027
JER EGJJ Saint Helier, JE Jersey Airport 4 6.21 11/10 30.32 EGJJ 272050Z AUTO 31004KT 9999 NCD 11/10 Q1027
EGOS Shawbury, GB RAF Shawbury 7 6.21 11/5 30.32 EGOS 272050Z AUTO 31007KT 9999 NCD 11/05 Q1027
PIK EGPK Glasgow, GB Glasgow Prestwick Airport 10 6.21 10/7 30.32 EGPK 272050Z 31010KT 9999 FEW045 10/07 Q1027
BEB EGPL Balivanich, GB Benbecula Airport 13 6.21 11/7 30.32 EGPL 272050Z AUTO 31013KT 9999 NCD 11/07 Q1027
TRE EGPU Balemartine, GB Tiree Airport 11 6.21 10/7 30.32 EGPU 272050Z AUTO 32011KT 9999 FEW016/// BKN041/// 10/07 Q1027
EXT EGTE Exeter, GB Exeter International Airport 9 6.21 11/7 30.32 EGTE 272050Z 31009KT CAVOK 11/07 Q1027
AEY BIAR Akureyri, IS Akureyri Airport 5 6.21 6/2 30.32 BIAR 272100Z 34005KT 9999 FEW020 06/02 Q1027
EGS BIEG Egilsstaðir, IS Egilsstaðir Airport 8 6.21 5/3 30.32 BIEG 272100Z 35008KT 9999 BKN024 BKN036 05/03 Q1027
FAJB 0 9/4 30.32 FAJB 272100Z AUTO 00000KT //// // ////// 09/04 Q1027
PTG FAPP Polokwane, ZA Polokwane International Airport 2 12/9 30.32 FAPP 272100Z AUTO 19002KT //// // ////// 12/09 Q1027
FVRG 5 6.21 11/9 30.32 FVRG 272100Z 09005KT CAVOK 11/09 Q1027 NOSIG
BES LFRB Brest/Guipavas, FR Brest Bretagne Airport 3 6.21 11/10 30.32 LFRB 272100Z AUTO VRB03KT CAVOK 11/10 Q1027 BECMG 3000 BR